createdAt,value
2019-03-30T00:00:22.147Z,6.59
2019-03-30T00:01:31.595Z,6.56
2019-03-30T00:02:41.293Z,6.64
2019-03-30T00:03:51.251Z,6.62
2019-03-30T00:05:00.935Z,6.71
2019-03-30T00:06:10.890Z,6.65
2019-03-30T00:07:20.586Z,6.65
2019-03-30T00:08:30.617Z,6.67
2019-03-30T00:09:40.575Z,6.7
2019-03-30T00:10:50.563Z,6.71
2019-03-30T00:12:02.721Z,6.72
2019-03-30T00:13:12.418Z,6.8
2019-03-30T00:14:22.356Z,6.89
2019-03-30T00:15:31.808Z,6.82
2019-03-30T00:16:41.751Z,6.85
2019-03-30T00:17:51.984Z,6.82
2019-03-30T00:19:01.701Z,6.87
2019-03-30T00:20:11.634Z,6.85
2019-03-30T00:21:21.327Z,6.9
2019-03-30T00:22:31.025Z,6.89
2019-03-30T00:23:40.995Z,6.86
2019-03-30T00:24:50.939Z,6.85
2019-03-30T00:26:00.896Z,6.87
2019-03-30T00:27:10.601Z,6.9
2019-03-30T00:28:20.560Z,6.86
2019-03-30T00:29:30.268Z,6.82
2019-03-30T00:30:39.719Z,6.77
2019-03-30T00:31:49.682Z,6.68
2019-03-30T00:32:59.416Z,6.72
2019-03-30T00:34:09.372Z,6.7
2019-03-30T00:35:19.315Z,6.71
2019-03-30T00:36:29.245Z,6.68
2019-03-30T00:37:39.252Z,6.75
2019-03-30T00:38:48.938Z,6.64
2019-03-30T00:39:58.870Z,6.64
2019-03-30T00:41:08.329Z,6.53
2019-03-30T00:42:18.064Z,6.64
2019-03-30T00:43:28.030Z,6.64
2019-03-30T00:44:37.973Z,6.59
2019-03-30T00:45:47.669Z,6.56
2019-03-30T00:46:57.377Z,6.57
2019-03-30T00:48:07.077Z,6.6
2019-03-30T00:49:17.023Z,6.52
2019-03-30T00:50:26.965Z,6.52
2019-03-30T00:51:36.413Z,6.52
2019-03-30T00:52:46.367Z,6.56
2019-03-30T00:53:56.051Z,6.59
2019-03-30T00:55:05.748Z,6.6
2019-03-30T00:56:15.741Z,6.56
2019-03-30T00:57:25.175Z,6.62
2019-03-30T00:58:34.868Z,6.56
2019-03-30T00:59:44.803Z,6.56
2019-03-30T01:00:54.874Z,6.53
2019-03-30T01:02:04.585Z,6.57
2019-03-30T01:03:14.543Z,6.47
2019-03-30T01:04:24.230Z,6.49
2019-03-30T01:05:33.916Z,6.5
2019-03-30T01:06:43.865Z,6.5
2019-03-30T01:07:53.835Z,6.36
2019-03-30T01:09:03.534Z,6.39
2019-03-30T01:10:13.226Z,6.47
2019-03-30T01:11:22.926Z,6.36
2019-03-30T01:12:32.623Z,6.44
2019-03-30T01:13:42.575Z,6.43
2019-03-30T01:14:52.176Z,6.41
2019-03-30T01:16:01.357Z,6.52
2019-03-30T01:17:11.054Z,6.43
2019-03-30T01:18:20.744Z,6.47
2019-03-30T01:19:30.443Z,6.39
2019-03-30T01:20:40.409Z,6.41
2019-03-30T01:21:50.087Z,6.49
2019-03-30T01:23:01.605Z,6.35
2019-03-30T01:24:11.562Z,6.46
2019-03-30T01:25:21.523Z,6.36
2019-03-30T01:26:31.477Z,6.39
2019-03-30T01:27:41.517Z,6.41
2019-03-30T01:28:51.459Z,6.43
2019-03-30T01:30:01.143Z,6.31
2019-03-30T01:31:11.113Z,6.29
2019-03-30T01:32:20.810Z,6.22
2019-03-30T01:33:30.572Z,6.34
2019-03-30T01:34:40.508Z,6.2
2019-03-30T01:35:50.268Z,6.22
2019-03-30T01:36:59.708Z,6.12
2019-03-30T01:38:09.427Z,6.15
2019-03-30T01:39:19.366Z,6.13
2019-03-30T01:40:29.321Z,6.16
2019-03-30T01:41:39.258Z,6.15
2019-03-30T01:42:48.942Z,6.12
2019-03-30T01:43:58.398Z,6.12
2019-03-30T01:45:08.339Z,6.09
2019-03-30T01:46:18.306Z,6.05
2019-03-30T01:47:28.257Z,6.02
2019-03-30T01:48:38.007Z,6.01
2019-03-30T01:49:47.694Z,5.95
2019-03-30T01:50:57.163Z,6.05
2019-03-30T01:52:07.100Z,5.91
2019-03-30T01:53:16.818Z,5.92
2019-03-30T01:54:26.462Z,5.95
2019-03-30T01:55:36.401Z,5.84
2019-03-30T01:56:45.846Z,5.87
2019-03-30T01:57:55.809Z,5.91
2019-03-30T01:59:05.762Z,5.87
2019-03-30T02:00:15.700Z,5.87
2019-03-30T02:01:25.386Z,5.8
2019-03-30T02:02:35.343Z,5.8
2019-03-30T02:03:45.296Z,5.8
2019-03-30T02:04:55.515Z,5.76
2019-03-30T02:06:05.348Z,5.73
2019-03-30T02:07:15.039Z,5.76
2019-03-30T02:08:24.986Z,5.76
2019-03-30T02:09:34.941Z,5.73
2019-03-30T02:10:44.893Z,5.69
2019-03-30T02:11:54.826Z,5.65
2019-03-30T02:13:04.754Z,5.7
2019-03-30T02:14:14.446Z,5.7
2019-03-30T02:15:23.903Z,5.67
2019-03-30T02:16:33.587Z,5.67
2019-03-30T02:17:43.568Z,5.56
2019-03-30T02:18:53.259Z,5.59
2019-03-30T02:20:02.962Z,5.52
2019-03-30T02:21:12.918Z,5.49
2019-03-30T02:22:22.867Z,5.51
2019-03-30T02:23:32.806Z,5.49
2019-03-30T02:24:42.756Z,5.44
2019-03-30T02:25:52.689Z,5.46
2019-03-30T02:27:02.626Z,5.46
2019-03-30T02:28:12.580Z,5.44
2019-03-30T02:29:22.515Z,5.43
2019-03-30T02:30:32.479Z,5.44
2019-03-30T02:31:42.467Z,5.4
2019-03-30T02:32:51.925Z,5.46
2019-03-30T02:34:01.903Z,5.44
2019-03-30T02:35:11.872Z,5.38
2019-03-30T02:36:21.836Z,5.36
2019-03-30T02:37:31.550Z,5.36
2019-03-30T02:38:41.511Z,5.31
2019-03-30T02:39:51.472Z,5.31
2019-03-30T02:41:01.444Z,5.25
2019-03-30T02:42:11.022Z,5.19
2019-03-30T02:43:21.017Z,5.23
2019-03-30T02:44:30.977Z,5.25
2019-03-30T02:45:40.965Z,5.18
2019-03-30T02:46:51.029Z,5.25
2019-03-30T02:48:00.781Z,5.16
2019-03-30T02:49:10.510Z,5.25
2019-03-30T02:50:20.242Z,5.22
2019-03-30T02:51:30.200Z,5.16
2019-03-30T02:52:39.909Z,5.19
2019-03-30T02:53:49.883Z,5.16
2019-03-30T02:54:59.838Z,5.19
2019-03-30T02:56:09.792Z,5.13
2019-03-30T02:57:19.497Z,5.08
2019-03-30T02:58:29.240Z,5.15
2019-03-30T02:59:38.946Z,5.18
2019-03-30T03:00:48.643Z,5.1
2019-03-30T03:01:58.337Z,5.1
2019-03-30T03:03:08.150Z,5.12
2019-03-30T03:04:18.108Z,5.13
2019-03-30T03:05:27.840Z,5.13
2019-03-30T03:06:37.586Z,5.15
2019-03-30T03:07:47.094Z,5.05
2019-03-30T03:08:56.540Z,5.1
2019-03-30T03:10:06.568Z,5.04
2019-03-30T03:11:16.508Z,5.01
2019-03-30T03:12:26.483Z,5.08
2019-03-30T03:13:36.176Z,5.05
2019-03-30T03:14:46.132Z,5.04
2019-03-30T03:15:55.587Z,5.02
2019-03-30T03:17:05.288Z,5.07
2019-03-30T03:18:15.479Z,4.98
2019-03-30T03:19:24.928Z,5
2019-03-30T03:20:34.393Z,5.02
2019-03-30T03:21:44.440Z,4.95
2019-03-30T03:22:54.416Z,5
2019-03-30T03:24:04.123Z,4.94
2019-03-30T03:25:14.088Z,4.95
2019-03-30T03:26:24.066Z,4.92
2019-03-30T03:27:34.054Z,4.89
2019-03-30T03:28:43.764Z,4.83
2019-03-30T03:29:53.217Z,4.83
2019-03-30T03:31:03.317Z,4.86
2019-03-30T03:32:13.310Z,4.86
2019-03-30T03:33:23.415Z,4.78
2019-03-30T03:34:32.898Z,4.7
2019-03-30T03:35:42.716Z,4.7
2019-03-30T03:36:52.702Z,4.75
2019-03-30T03:38:02.397Z,4.64
2019-03-30T03:39:12.360Z,4.63
2019-03-30T03:40:22.344Z,4.58
2019-03-30T03:41:32.324Z,4.48
2019-03-30T03:42:42.048Z,4.49
2019-03-30T03:43:52.037Z,4.52
2019-03-30T03:45:01.774Z,4.52
2019-03-30T03:46:11.665Z,4.48
2019-03-30T03:47:21.423Z,4.45
2019-03-30T03:48:31.408Z,4.52
2019-03-30T03:49:41.210Z,4.52
2019-03-30T03:50:51.158Z,4.49
2019-03-30T03:52:01.178Z,4.4
2019-03-30T03:53:11.150Z,4.36
2019-03-30T03:54:21.113Z,4.34
2019-03-30T03:55:30.811Z,4.4
2019-03-30T03:56:40.786Z,4.43
2019-03-30T03:57:50.744Z,4.38
2019-03-30T03:59:00.711Z,4.42
2019-03-30T04:00:10.700Z,4.38
2019-03-30T04:01:19.928Z,4.39
2019-03-30T04:02:29.912Z,4.45
2019-03-30T04:03:39.895Z,4.49
2019-03-30T04:04:52.145Z,4.49
2019-03-30T04:06:01.860Z,4.48
2019-03-30T04:07:11.666Z,4.5
2019-03-30T04:08:21.376Z,4.52
2019-03-30T04:09:31.354Z,4.52
2019-03-30T04:10:41.320Z,4.52
2019-03-30T04:11:51.280Z,4.5
2019-03-30T04:13:01.232Z,4.56
2019-03-30T04:14:14.642Z,4.61
2019-03-30T04:15:24.701Z,4.74
2019-03-30T04:16:34.186Z,4.67
2019-03-30T04:17:44.217Z,4.68
2019-03-30T04:18:54.192Z,4.74
2019-03-30T04:20:04.155Z,4.64
2019-03-30T04:21:14.106Z,4.74
2019-03-30T04:22:23.818Z,4.71
2019-03-30T04:23:33.773Z,4.7
2019-03-30T04:24:43.496Z,4.68
2019-03-30T04:25:53.476Z,4.74
2019-03-30T04:27:03.474Z,4.66
2019-03-30T04:28:13.189Z,4.57
2019-03-30T04:29:23.157Z,4.58
2019-03-30T04:30:33.216Z,4.53
2019-03-30T04:31:43.170Z,4.49
2019-03-30T04:32:52.880Z,4.53
2019-03-30T04:34:02.829Z,4.5
2019-03-30T04:35:12.282Z,4.48
2019-03-30T04:36:22.004Z,4.46
2019-03-30T04:37:31.970Z,4.49
2019-03-30T04:38:41.659Z,4.42
2019-03-30T04:39:51.613Z,4.38
2019-03-30T04:41:01.332Z,4.4
2019-03-30T04:42:11.295Z,4.31
2019-03-30T04:43:21.236Z,4.36
2019-03-30T04:44:31.183Z,4.28
2019-03-30T04:45:41.123Z,4.38
2019-03-30T04:46:51.064Z,4.3
2019-03-30T04:48:01.060Z,4.27
2019-03-30T04:49:10.573Z,4.24
2019-03-30T04:50:20.028Z,4.21
2019-03-30T04:51:29.973Z,4.31
2019-03-30T04:52:39.669Z,4.21
2019-03-30T04:53:49.606Z,4.28
2019-03-30T04:54:59.286Z,4.21
2019-03-30T04:56:09.230Z,4.2
2019-03-30T04:57:19.178Z,4.18
2019-03-30T04:58:29.117Z,4.2
2019-03-30T04:59:39.072Z,4.14
2019-03-30T05:00:49.025Z,4.22
2019-03-30T05:01:58.721Z,4.21
2019-03-30T05:03:08.418Z,4.25
2019-03-30T05:04:18.375Z,4.25
2019-03-30T05:05:28.108Z,4.32
2019-03-30T05:06:37.831Z,4.36
2019-03-30T05:07:47.773Z,4.49
2019-03-30T05:08:57.744Z,4.48
2019-03-30T05:10:07.696Z,4.52
2019-03-30T05:11:17.150Z,4.46
2019-03-30T05:12:26.589Z,4.56
2019-03-30T05:13:36.291Z,4.4
2019-03-30T05:14:46.251Z,4.34
2019-03-30T05:15:56.198Z,4.39
2019-03-30T05:17:06.138Z,4.45
2019-03-30T05:18:15.815Z,4.39
2019-03-30T05:19:25.259Z,4.32
2019-03-30T05:20:35.277Z,4.34
2019-03-30T05:21:45.216Z,4.36
2019-03-30T05:22:56.297Z,4.39
2019-03-30T05:24:06.235Z,4.34
2019-03-30T05:25:16.213Z,4.27
2019-03-30T05:26:25.905Z,4.16
2019-03-30T05:27:35.589Z,4.18
2019-03-30T05:28:45.073Z,4.25
2019-03-30T05:29:55.010Z,4.21
2019-03-30T05:31:04.978Z,4.2
2019-03-30T05:32:14.669Z,4.18
2019-03-30T05:33:24.623Z,4.14
2019-03-30T05:34:34.574Z,4.18
2019-03-30T05:35:43.765Z,4.14
2019-03-30T05:36:53.449Z,4.06
2019-03-30T05:38:06.340Z,4.09
2019-03-30T05:39:15.799Z,4.12
2019-03-30T05:40:25.492Z,4.16
2019-03-30T05:41:35.176Z,4.27
2019-03-30T05:42:45.189Z,4.16
2019-03-30T05:43:55.139Z,4.21
2019-03-30T05:45:05.249Z,4.22
2019-03-30T05:46:14.703Z,4.2
2019-03-30T05:47:24.659Z,4.22
2019-03-30T05:48:34.351Z,4.18
2019-03-30T05:49:44.318Z,4.21
2019-03-30T05:50:54.252Z,4.2
2019-03-30T05:52:03.954Z,4.21
2019-03-30T05:53:13.992Z,4.12
2019-03-30T05:54:24.010Z,4.2
2019-03-30T05:55:33.685Z,4.2
2019-03-30T05:56:43.637Z,4.2
2019-03-30T05:57:53.356Z,4.2
2019-03-30T05:59:03.289Z,4.22
2019-03-30T06:00:12.973Z,4.2
2019-03-30T06:01:22.923Z,4.16
2019-03-30T06:02:32.855Z,4.13
2019-03-30T06:03:42.797Z,4.21
2019-03-30T06:04:52.744Z,4.25
2019-03-30T06:06:04.043Z,4.32
2019-03-30T06:07:13.485Z,4.24
2019-03-30T06:08:23.436Z,4.31
2019-03-30T06:09:33.122Z,4.3
2019-03-30T06:10:43.835Z,4.42
2019-03-30T06:11:53.523Z,4.32
2019-03-30T06:13:03.550Z,4.42
2019-03-30T06:14:13.486Z,4.5
2019-03-30T06:15:23.189Z,4.57
2019-03-30T06:16:32.878Z,4.61
2019-03-30T06:17:42.823Z,4.63
2019-03-30T06:18:52.778Z,4.7
2019-03-30T06:20:02.225Z,4.67
2019-03-30T06:21:11.922Z,4.83
2019-03-30T06:22:21.891Z,4.87
2019-03-30T06:23:44.695Z,5
2019-03-30T06:24:56.268Z,4.94
2019-03-30T06:26:06.400Z,5.02
2019-03-30T06:27:16.111Z,4.98
2019-03-30T06:28:26.067Z,5.02
2019-03-30T06:29:35.810Z,5.13
2019-03-30T06:30:45.747Z,5.15
2019-03-30T06:31:55.707Z,5.15
2019-03-30T06:33:05.661Z,5.19
2019-03-30T06:34:15.128Z,5.23
2019-03-30T06:35:25.081Z,5.37
2019-03-30T06:36:34.771Z,5.31
2019-03-30T06:37:44.695Z,5.37
2019-03-30T06:38:54.642Z,5.37
2019-03-30T06:40:04.612Z,5.4
2019-03-30T06:41:14.299Z,5.34
2019-03-30T06:42:24.267Z,5.38
2019-03-30T06:43:34.213Z,5.46
2019-03-30T06:44:43.906Z,5.47
2019-03-30T06:45:53.856Z,5.44
2019-03-30T06:47:03.806Z,5.47
2019-03-30T06:48:13.772Z,5.43
2019-03-30T06:49:23.459Z,5.43
2019-03-30T06:50:33.153Z,5.46
2019-03-30T06:51:43.112Z,5.46
2019-03-30T06:53:02.836Z,5.56
2019-03-30T06:54:14.722Z,5.56
2019-03-30T06:55:24.605Z,5.54
2019-03-30T06:56:34.557Z,5.58
2019-03-30T06:57:44.491Z,5.64
2019-03-30T06:58:54.436Z,5.62
2019-03-30T07:00:04.599Z,5.65
2019-03-30T07:01:14.559Z,5.67
2019-03-30T07:02:24.271Z,5.79
2019-03-30T07:03:34.219Z,5.76
2019-03-30T07:04:43.932Z,5.79
2019-03-30T07:05:53.119Z,5.74
2019-03-30T07:07:02.566Z,5.87
2019-03-30T07:08:12.516Z,5.83
2019-03-30T07:09:21.956Z,5.87
2019-03-30T07:10:31.925Z,6.06
2019-03-30T07:11:43.747Z,6.02
2019-03-30T07:12:53.724Z,6.15
2019-03-30T07:14:03.173Z,6.13
2019-03-30T07:15:13.142Z,6.12
2019-03-30T07:16:22.830Z,6.13
2019-03-30T07:17:32.775Z,6.22
2019-03-30T07:18:42.741Z,6.16
2019-03-30T07:19:52.730Z,6.34
2019-03-30T07:21:02.660Z,6.26
2019-03-30T07:22:11.849Z,6.31
2019-03-30T07:23:21.546Z,6.34
2019-03-30T07:24:31.485Z,6.41
2019-03-30T07:25:41.440Z,6.47
2019-03-30T07:26:51.133Z,6.59
2019-03-30T07:28:00.820Z,6.53
2019-03-30T07:29:10.833Z,6.68
2019-03-30T07:30:20.522Z,6.8
2019-03-30T07:31:30.531Z,6.74
2019-03-30T07:32:40.496Z,6.8
2019-03-30T07:33:50.200Z,6.78
2019-03-30T07:34:59.627Z,6.87
2019-03-30T07:36:09.587Z,6.95
2019-03-30T07:37:19.293Z,6.9
2019-03-30T07:38:29.243Z,7.08
2019-03-30T07:39:38.943Z,7.05
2019-03-30T07:40:48.892Z,7.08
2019-03-30T07:41:58.832Z,7.13
2019-03-30T07:43:08.539Z,7.26
2019-03-30T07:44:18.233Z,7.36
2019-03-30T07:45:27.685Z,7.26
2019-03-30T07:46:37.485Z,7.37
2019-03-30T07:47:47.430Z,7.36
2019-03-30T07:48:57.135Z,7.37
2019-03-30T07:50:06.838Z,7.37
2019-03-30T07:51:16.538Z,7.5
2019-03-30T07:52:26.243Z,7.43
2019-03-30T07:53:49.220Z,7.56
2019-03-30T07:54:59.155Z,7.62
2019-03-30T07:56:13.643Z,7.58
2019-03-30T07:57:23.349Z,7.62
2019-03-30T07:58:33.324Z,7.75
2019-03-30T07:59:43.283Z,7.8
2019-03-30T08:00:52.762Z,7.88
2019-03-30T08:02:02.464Z,8.01
2019-03-30T08:03:12.420Z,7.99
2019-03-30T08:04:22.109Z,7.87
2019-03-30T08:05:34.000Z,8.01
2019-03-30T08:06:43.964Z,8.08
2019-03-30T08:07:53.928Z,8.05
2019-03-30T08:09:03.894Z,7.99
2019-03-30T08:10:13.841Z,8.05
2019-03-30T08:11:23.537Z,8.16
2019-03-30T08:12:33.502Z,8.28
2019-03-30T08:13:43.463Z,8.34
2019-03-30T08:14:53.160Z,8.54
2019-03-30T08:16:03.146Z,8.56
2019-03-30T08:17:12.946Z,8.71
2019-03-30T08:18:23.004Z,8.69
2019-03-30T08:19:32.945Z,8.68
2019-03-30T08:20:42.886Z,8.81
2019-03-30T08:21:52.593Z,8.74
2019-03-30T08:23:02.304Z,8.9
2019-03-30T08:24:11.994Z,8.97
2019-03-30T08:25:21.964Z,8.87
2019-03-30T08:26:31.424Z,8.97
2019-03-30T08:27:43.028Z,8.95
2019-03-30T08:28:52.978Z,9.18
2019-03-30T08:30:02.932Z,9.22
2019-03-30T08:31:12.890Z,9.26
2019-03-30T08:32:22.830Z,9.47
2019-03-30T08:33:32.765Z,9.56
2019-03-30T08:34:42.702Z,9.7
2019-03-30T08:35:52.425Z,9.81
2019-03-30T08:37:03.942Z,9.9
2019-03-30T08:38:13.907Z,9.85
2019-03-30T08:39:23.844Z,9.99
2019-03-30T08:40:33.793Z,10.21
2019-03-30T08:41:43.488Z,10.45
2019-03-30T08:42:53.432Z,10.75
2019-03-30T08:44:03.383Z,11.16
2019-03-30T08:45:13.344Z,11.38
2019-03-30T08:46:23.298Z,11.73
2019-03-30T08:47:32.736Z,12.08
2019-03-30T08:48:42.462Z,12.21
2019-03-30T08:49:52.160Z,12.37
2019-03-30T08:51:01.892Z,12.54
2019-03-30T08:52:11.833Z,12.63
2019-03-30T08:53:21.544Z,12.88
2019-03-30T08:54:31.251Z,13.03
2019-03-30T08:55:41.206Z,13.4
2019-03-30T08:56:50.680Z,13.54
2019-03-30T08:58:00.456Z,13.87
2019-03-30T08:59:10.437Z,14.07
2019-03-30T09:00:19.888Z,14.03
2019-03-30T09:01:29.586Z,14.23
2019-03-30T09:02:39.276Z,14.4
2019-03-30T09:03:48.970Z,14.52
2019-03-30T09:04:58.666Z,14.55
2019-03-30T09:06:08.624Z,14.7
2019-03-30T09:07:18.594Z,14.99
2019-03-30T09:08:28.544Z,15.05
2019-03-30T09:09:38.250Z,15.17
2019-03-30T09:10:47.945Z,15.3
2019-03-30T09:11:57.644Z,15.41
2019-03-30T09:13:07.600Z,15.51
2019-03-30T09:14:17.324Z,15.81
2019-03-30T09:15:27.277Z,16.21
2019-03-30T09:16:37.239Z,16.25
2019-03-30T09:17:47.196Z,16.24
2019-03-30T09:18:56.967Z,16.16
2019-03-30T09:20:06.746Z,16.26
2019-03-30T09:21:16.199Z,16.16
2019-03-30T09:22:25.924Z,16.02
2019-03-30T09:23:35.890Z,16.25
2019-03-30T09:24:45.870Z,16.31
2019-03-30T09:25:55.846Z,16.41
2019-03-30T09:27:05.536Z,16.73
2019-03-30T09:28:15.509Z,17.04
2019-03-30T09:29:25.198Z,17.27
2019-03-30T09:30:35.162Z,17.3
2019-03-30T09:31:45.121Z,17.35
2019-03-30T09:32:54.916Z,17.69
2019-03-30T09:34:04.640Z,17.95
2019-03-30T09:35:14.609Z,18.08
2019-03-30T09:36:24.336Z,18.08
2019-03-30T09:37:34.118Z,18.03
2019-03-30T09:38:44.111Z,18
2019-03-30T09:39:54.076Z,18.23
2019-03-30T09:41:04.141Z,17.88
2019-03-30T09:42:14.102Z,17.69
2019-03-30T09:43:23.556Z,17.71
2019-03-30T09:44:33.524Z,17.6
2019-03-30T09:45:43.510Z,17.49
2019-03-30T09:46:53.469Z,17.72
2019-03-30T09:48:03.183Z,17.65
2019-03-30T09:49:12.926Z,17.66
2019-03-30T09:50:22.653Z,17.91
2019-03-30T09:51:32.598Z,18.06
2019-03-30T09:52:42.313Z,18.19
2019-03-30T09:53:52.043Z,18.26
2019-03-30T09:55:02.035Z,18.51
2019-03-30T09:56:11.737Z,18.43
2019-03-30T09:57:21.707Z,18.34
2019-03-30T09:58:31.677Z,18.39
2019-03-30T09:59:41.374Z,18.45
2019-03-30T10:00:51.352Z,18.26
2019-03-30T10:02:01.304Z,18.48
2019-03-30T10:03:11.052Z,18.73
2019-03-30T10:04:20.502Z,18.55
2019-03-30T10:05:30.452Z,18.34
2019-03-30T10:06:40.430Z,18.19
2019-03-30T10:07:50.392Z,18.15
2019-03-30T10:09:00.386Z,18.12
2019-03-30T10:10:10.293Z,18.21
2019-03-30T10:11:20.240Z,18.03
2019-03-30T10:12:29.944Z,18.23
2019-03-30T10:13:39.398Z,18.15
2019-03-30T10:14:49.097Z,18.11
2019-03-30T10:15:59.083Z,18.18
2019-03-30T10:17:08.823Z,18.45
2019-03-30T10:18:18.788Z,18.52
2019-03-30T10:19:30.295Z,18.73
2019-03-30T10:20:40.271Z,19.04
2019-03-30T10:21:50.216Z,19.08
2019-03-30T10:23:00.182Z,19.12
2019-03-30T10:24:09.876Z,19.3
2019-03-30T10:25:19.841Z,19.17
2019-03-30T10:26:29.793Z,19.16
2019-03-30T10:27:39.482Z,19.44
2019-03-30T10:28:51.886Z,19.48
2019-03-30T10:30:01.601Z,19.57
2019-03-30T10:31:11.571Z,19.7
2019-03-30T10:32:21.528Z,20.22
2019-03-30T10:33:31.234Z,20.08
2019-03-30T10:34:44.337Z,19.39
2019-03-30T10:35:54.037Z,19.35
2019-03-30T10:37:03.991Z,19.63
2019-03-30T10:38:13.699Z,19.67
2019-03-30T10:39:23.419Z,19.62
2019-03-30T10:40:33.373Z,19.66
2019-03-30T10:41:43.089Z,19.85
2019-03-30T10:42:53.050Z,20.11
2019-03-30T10:44:03.090Z,19.87
2019-03-30T10:45:13.060Z,19.67
2019-03-30T10:46:23.017Z,19.34
2019-03-30T10:47:32.975Z,19.42
2019-03-30T10:48:42.684Z,19.49
2019-03-30T10:49:52.835Z,19.57
2019-03-30T10:51:02.284Z,19.62
2019-03-30T10:52:12.010Z,19.78
2019-03-30T10:53:21.716Z,19.85
2019-03-30T10:54:31.422Z,19.62
2019-03-30T10:55:41.384Z,19.7
2019-03-30T10:56:51.101Z,19.63
2019-03-30T10:58:03.321Z,19.94
2019-03-30T10:59:12.773Z,20.33
2019-03-30T11:00:22.492Z,20.66
2019-03-30T11:01:32.460Z,20.96
2019-03-30T11:02:42.166Z,20.73
2019-03-30T11:03:52.141Z,20.75
2019-03-30T11:05:01.872Z,20.86
2019-03-30T11:06:11.808Z,20.63
2019-03-30T11:07:21.770Z,20.55
2019-03-30T11:08:31.477Z,20.18
2019-03-30T11:09:41.527Z,20.12
2019-03-30T11:10:54.807Z,19.81
2019-03-30T11:12:04.761Z,20.29
2019-03-30T11:13:14.741Z,20.32
2019-03-30T11:14:24.785Z,20.3
2019-03-30T11:15:36.611Z,20.3
2019-03-30T11:16:46.589Z,20.15
2019-03-30T11:17:56.353Z,20.17
2019-03-30T11:19:06.305Z,20.29
2019-03-30T11:20:16.077Z,20.52
2019-03-30T11:21:26.049Z,19.97
2019-03-30T11:22:36.023Z,19.82
2019-03-30T11:23:45.996Z,19.94
2019-03-30T11:25:09.785Z,19.56
2019-03-30T11:26:19.493Z,19.38
2019-03-30T11:27:29.458Z,19.29
2019-03-30T11:28:39.169Z,19.67
2019-03-30T11:29:48.886Z,20.12
2019-03-30T11:30:58.598Z,20.32
2019-03-30T11:32:10.534Z,20.5
2019-03-30T11:33:20.260Z,20.8
2019-03-30T11:34:30.235Z,20.55
2019-03-30T11:35:40.197Z,20.59
2019-03-30T11:36:49.907Z,20.88
2019-03-30T11:37:59.964Z,20.89
2019-03-30T11:39:09.943Z,20.53
2019-03-30T11:40:19.665Z,20.63
2019-03-30T11:41:29.902Z,20.24
2019-03-30T11:42:39.859Z,19.84
2019-03-30T11:43:49.865Z,19.81
2019-03-30T11:44:59.830Z,19.78
2019-03-30T11:46:09.550Z,19.87
2019-03-30T11:47:19.272Z,20.24
2019-03-30T11:48:29.237Z,20.88
2019-03-30T11:49:42.707Z,21.01
2019-03-30T11:50:52.680Z,20.73
2019-03-30T11:52:02.695Z,20.66
2019-03-30T11:53:12.403Z,20.64
2019-03-30T11:54:22.450Z,20.77
2019-03-30T11:55:32.148Z,21.05
2019-03-30T11:56:42.128Z,21.43
2019-03-30T11:57:51.835Z,21.43
2019-03-30T11:59:01.551Z,21.59
2019-03-30T12:00:11.543Z,20.92
2019-03-30T12:01:24.265Z,20.7
2019-03-30T12:02:33.715Z,20.39
2019-03-30T12:03:43.707Z,20.14
2019-03-30T12:04:53.667Z,20.21
2019-03-30T12:06:03.650Z,20.32
2019-03-30T12:07:13.378Z,20.04
2019-03-30T12:08:22.840Z,20.18
2019-03-30T12:09:32.868Z,20.46
2019-03-30T12:10:42.837Z,20.5
2019-03-30T12:11:52.846Z,21.04
2019-03-30T12:13:02.564Z,21.4
2019-03-30T12:14:12.543Z,21.25
2019-03-30T12:15:22.490Z,21.56
2019-03-30T12:16:32.038Z,21.7
2019-03-30T12:17:45.747Z,21.96
2019-03-30T12:18:55.468Z,22.06
2019-03-30T12:20:05.216Z,21.75
2019-03-30T12:21:15.198Z,21.7
2019-03-30T12:22:24.915Z,22.16
2019-03-30T12:23:34.866Z,22.18
2019-03-30T12:24:47.869Z,22.06
2019-03-30T12:25:57.573Z,22.12
2019-03-30T12:27:07.540Z,22.37
2019-03-30T12:28:17.004Z,22.37
2019-03-30T12:29:26.962Z,22.16
2019-03-30T12:30:37.008Z,22.19
2019-03-30T12:31:46.731Z,21.83
2019-03-30T12:32:56.452Z,21.54
2019-03-30T12:34:06.415Z,21.43
2019-03-30T12:35:18.456Z,21.83
2019-03-30T12:36:28.441Z,21.97
2019-03-30T12:37:38.414Z,22.18
2019-03-30T12:38:48.369Z,22.14
2019-03-30T12:40:00.812Z,22.15
2019-03-30T12:41:10.819Z,21.8
2019-03-30T12:42:20.292Z,21.47
2019-03-30T12:43:30.000Z,21.58
2019-03-30T12:44:39.938Z,21.88
2019-03-30T12:45:49.661Z,22.06
2019-03-30T12:46:59.121Z,21.69
2019-03-30T12:48:08.846Z,21.8
2019-03-30T12:49:18.813Z,22.33
2019-03-30T12:50:28.765Z,22.22
2019-03-30T12:51:38.735Z,22.74
2019-03-30T12:52:48.708Z,22.63
2019-03-30T12:53:58.423Z,23.01
2019-03-30T12:55:08.368Z,23.16
2019-03-30T12:56:18.073Z,23.14
2019-03-30T12:57:27.803Z,22.67
2019-03-30T12:58:37.774Z,22.65
2019-03-30T12:59:47.734Z,22.46
2019-03-30T13:00:57.719Z,22.15
2019-03-30T13:02:07.674Z,21.83
2019-03-30T13:03:17.636Z,21.91
2019-03-30T13:04:27.356Z,22.16
2019-03-30T13:05:37.062Z,22.47
2019-03-30T13:06:46.765Z,22.77
2019-03-30T13:07:56.494Z,22.16
2019-03-30T13:09:06.452Z,22.07
2019-03-30T13:10:16.405Z,22.53
2019-03-30T13:11:26.366Z,22.7
2019-03-30T13:12:36.087Z,22.67
2019-03-30T13:13:46.060Z,23.07
2019-03-30T13:14:55.785Z,23.28
2019-03-30T13:16:05.505Z,23.18
2019-03-30T13:17:15.463Z,22.96
2019-03-30T13:18:25.435Z,23.08
2019-03-30T13:19:35.399Z,23.32
2019-03-30T13:20:45.356Z,23.17
2019-03-30T13:21:57.995Z,23.02
2019-03-30T13:23:07.949Z,23.25
2019-03-30T13:24:17.930Z,23.01
2019-03-30T13:25:27.887Z,22.49
2019-03-30T13:26:37.845Z,22.51
2019-03-30T13:27:47.838Z,22.67
2019-03-30T13:29:01.105Z,22.34
2019-03-30T13:30:10.816Z,22.52
2019-03-30T13:31:20.780Z,22.37
2019-03-30T13:32:30.765Z,22.41
2019-03-30T13:33:40.733Z,22.33
2019-03-30T13:34:50.450Z,22.33
2019-03-30T13:36:00.415Z,21.94
2019-03-30T13:37:10.387Z,21.97
2019-03-30T13:38:25.711Z,21.72
2019-03-30T13:39:35.622Z,22.14
2019-03-30T13:40:45.339Z,22.37
2019-03-30T13:41:55.053Z,22.36
2019-03-30T13:43:05.023Z,21.99
2019-03-30T13:44:14.746Z,21.7
2019-03-30T13:45:24.462Z,21.92
2019-03-30T13:46:34.433Z,21.72
2019-03-30T13:47:44.150Z,21.89
2019-03-30T13:48:53.897Z,22.07
2019-03-30T13:50:03.614Z,21.78
2019-03-30T13:51:13.615Z,21.84
2019-03-30T13:52:23.597Z,21.96
2019-03-30T13:53:33.329Z,21.66
2019-03-30T13:54:43.708Z,21.44
2019-03-30T13:55:53.420Z,21.47
2019-03-30T13:57:03.131Z,21.28
2019-03-30T13:58:12.591Z,21.28
2019-03-30T13:59:22.048Z,21.54
2019-03-30T14:00:32.012Z,21.96
2019-03-30T14:01:41.726Z,22.08
2019-03-30T14:02:51.691Z,22.15
2019-03-30T14:04:01.729Z,22.51
2019-03-30T14:05:11.497Z,22.76
2019-03-30T14:06:21.474Z,22.67
2019-03-30T14:07:31.195Z,22.46
2019-03-30T14:08:40.924Z,22.31
2019-03-30T14:09:50.882Z,22.04
2019-03-30T14:11:00.595Z,21.96
2019-03-30T14:12:10.069Z,21.72
2019-03-30T14:13:19.782Z,21.78
2019-03-30T14:14:29.492Z,21.99
2019-03-30T14:15:39.200Z,22
2019-03-30T14:16:49.185Z,22.31
2019-03-30T14:17:58.891Z,22.16
2019-03-30T14:19:08.855Z,22.31
2019-03-30T14:20:18.825Z,22.3
2019-03-30T14:21:28.789Z,22.15
2019-03-30T14:22:38.817Z,22.28
2019-03-30T14:23:48.812Z,21.99
2019-03-30T14:24:58.793Z,21.81
2019-03-30T14:26:08.776Z,21.72
2019-03-30T14:27:18.527Z,22.06
2019-03-30T14:28:28.491Z,21.88
2019-03-30T14:29:38.442Z,21.63
2019-03-30T14:30:48.156Z,21.56
2019-03-30T14:31:58.143Z,21.75
2019-03-30T14:33:08.098Z,21.5
2019-03-30T14:34:18.080Z,21.45
2019-03-30T14:35:27.804Z,21.5
2019-03-30T14:36:37.763Z,21.4
2019-03-30T14:37:47.723Z,21.47
2019-03-30T14:38:57.458Z,21.53
2019-03-30T14:40:07.447Z,21.96
2019-03-30T14:41:17.412Z,21.97
2019-03-30T14:42:27.379Z,21.96
2019-03-30T14:43:37.352Z,21.92
2019-03-30T14:44:47.065Z,21.99
2019-03-30T14:45:56.835Z,22.06
2019-03-30T14:47:06.813Z,21.77
2019-03-30T14:48:16.513Z,21.37
2019-03-30T14:49:26.222Z,21.33
2019-03-30T14:50:35.942Z,21.37
2019-03-30T14:51:45.908Z,20.98
2019-03-30T14:52:55.629Z,21.03
2019-03-30T14:54:05.593Z,21.23
2019-03-30T14:55:15.547Z,21.03
2019-03-30T14:56:25.534Z,21.25
2019-03-30T14:57:34.998Z,21.1
2019-03-30T14:58:45.056Z,21.29
2019-03-30T14:59:54.878Z,21.47
2019-03-30T15:01:08.012Z,21.43
2019-03-30T15:02:17.548Z,21.32
2019-03-30T15:03:27.528Z,21.38
2019-03-30T15:04:36.982Z,21.29
2019-03-30T15:05:46.682Z,21.25
2019-03-30T15:06:56.144Z,21.33
2019-03-30T15:08:05.864Z,21.43
2019-03-30T15:09:15.837Z,21.44
2019-03-30T15:10:25.798Z,21.44
2019-03-30T15:11:37.964Z,21.44
2019-03-30T15:12:48.038Z,21.51
2019-03-30T15:13:57.996Z,21.58
2019-03-30T15:15:07.959Z,21.44
2019-03-30T15:16:17.670Z,21.43
2019-03-30T15:17:27.127Z,21.66
2019-03-30T15:18:36.844Z,21.8
2019-03-30T15:19:46.816Z,21.96
2019-03-30T15:20:56.778Z,22
2019-03-30T15:22:06.483Z,21.97